Time;durP1;ratioP1;P1;durP2;ratioP2;P2;SDS_P1;SDS_P2;PMS_P1;PMS_P2;Temp;Humidity;BMP_temperature;BMP_pressure;BME280_temperature;BME280_humidity;BME280_pressure;Samples;Min_cycle;Max_cycle;Signal;HPM_P1;HPM_P2
2023/04/19 00:00:40;;;;;;;5.17;4.87;;;;;;;12.69;100.00;-1178.91;5155053;27;20621;-60
2023/04/19 00:03:07;;;;;;;5.07;4.87;;;;;;;12.66;100.00;1385.84;5154986;27;20672;-60
2023/04/19 00:05:35;;;;;;;5.87;5.37;;;;;;;12.70;100.00;4595.31;5154621;27;20186;-61
2023/04/19 00:08:02;;;;;;;6.23;5.73;;;;;;;12.75;100.00;3632.75;5154827;27;20671;-60
2023/04/19 00:10:29;;;;;;;6.00;5.70;;;;;;;12.92;100.00;1387.81;5154117;27;20222;-61
2023/04/19 00:12:57;;;;;;;5.53;5.27;;;;;;;12.99;100.00;-215.81;5154560;27;20546;-61
2023/04/19 00:15:25;;;;;;;5.97;5.67;;;;;;;12.98;100.00;1709.16;5154701;27;20182;-60
2023/04/19 00:17:52;;;;;;;5.77;5.27;;;;;;;13.02;100.00;2030.47;5154418;27;20264;-61
2023/04/19 00:20:19;;;;;;;5.63;5.33;;;;;;;12.96;100.00;-536.66;5154440;27;20255;-60
2023/04/19 00:22:46;;;;;;;5.63;5.33;;;;;;;13.13;100.00;-1818.81;5154286;27;20186;-60
2023/04/19 00:25:13;;;;;;;6.27;5.80;;;;;;;13.05;100.00;-3101.22;5154624;27;20588;-60
2023/04/19 00:27:40;;;;;;;6.50;6.00;;;;;;;12.91;100.00;-1819.31;5154102;27;20242;-60
2023/04/19 00:30:10;;;;;;;6.07;5.73;;;;;;;12.94;100.00;-216.06;5154506;27;20190;-60
2023/04/19 00:32:37;;;;;;;5.90;5.60;;;;;;;12.87;100.00;425.06;5154370;27;20629;-61
2023/04/19 00:35:05;;;;;;;6.63;6.23;;;;;;;12.80;100.00;1386.91;5154066;27;20192;-60
2023/04/19 00:37:32;;;;;;;6.00;5.60;;;;;;;12.89;100.00;2350.28;5154087;27;20186;-60
2023/04/19 00:39:59;;;;;;;6.33;6.03;;;;;;;12.92;100.00;3955.75;5154040;27;20186;-60
2023/04/19 00:42:26;;;;;;;6.07;5.67;;;;;;;12.79;100.00;7166.28;5153999;27;20223;-61
2023/04/19 00:44:53;;;;;;;6.73;6.13;;;;;;;13.00;100.00;5562.88;5154196;27;20185;-60
2023/04/19 00:47:21;;;;;;;6.77;6.33;;;;;;;12.93;100.00;3955.88;5153872;27;20185;-60
2023/04/19 00:49:49;;;;;;;7.17;6.57;;;;;;;12.90;100.00;3313.31;5153848;27;20221;-60
2023/04/19 00:52:16;;;;;;;8.87;6.80;;;;;;;12.98;100.00;5562.53;5153781;27;20190;-60
2023/04/19 00:54:45;;;;;;;8.83;6.70;;;;;;;12.92;100.00;8454.47;5153782;27;20182;-61
2023/04/19 00:57:12;;;;;;;7.37;6.57;;;;;;;12.93;100.00;10062.75;5153059;27;20222;-59
2023/04/19 00:59:40;;;;;;;9.43;6.37;;;;;;;12.98;100.00;8777.22;5153737;27;20222;-61
2023/04/19 01:02:07;;;;;;;7.17;6.67;;;;;;;12.93;100.00;8776.25;5153587;27;20182;-60
2023/04/19 01:04:36;;;;;;;7.07;6.73;;;;;;;12.99;100.00;7491.16;5153626;27;20194;-62
2023/04/19 01:07:03;;;;;;;8.50;7.80;;;;;;;12.88;100.00;6525.06;5153492;27;20278;-60
2023/04/19 01:09:30;;;;;;;9.47;7.30;;;;;;;12.76;100.00;4917.19;5153524;27;20202;-60
2023/04/19 01:11:57;;;;;;;11.23;8.40;;;;;;;12.67;100.00;1706.69;5153724;27;20265;-59
2023/04/19 01:14:24;;;;;;;8.40;7.60;;;;;;;12.67;100.00;-537.91;5153263;27;20346;-60
2023/04/19 01:16:53;;;;;;;11.50;9.07;;;;;;;12.47;100.00;-10777.03;5153318;27;20178;-62
2023/04/19 01:19:20;;;;;;;10.53;9.43;;;;;;;12.29;100.00;-14923.75;5153338;27;20191;-61
2023/04/19 01:21:48;;;;;;;13.13;9.70;;;;;;;12.15;100.00;-18108.38;5153522;27;20178;-62
2023/04/19 01:24:17;;;;;;;11.03;9.93;;;;;;;12.05;100.00;-16194.34;5153627;27;20605;-63
2023/04/19 01:26:44;;;;;;;11.10;9.90;;;;;;;12.00;100.00;-13642.91;5153401;27;20192;-62
2023/04/19 01:29:11;;;;;;;10.93;10.30;;;;;;;11.99;100.00;-11090.41;5153199;27;20208;-62
2023/04/19 01:31:38;;;;;;;15.10;11.23;;;;;;;11.99;100.00;-9813.44;5153623;27;20178;-62
2023/04/19 01:34:05;;;;;;;13.17;12.10;;;;;;;11.95;100.00;-8216.31;5153548;27;20193;-62
2023/04/19 01:36:32;;;;;;;12.37;11.30;;;;;;;11.90;100.00;-6938.09;5153517;27;20178;-62
2023/04/19 01:38:59;;;;;;;13.97;12.73;;;;;;;11.73;100.00;-6937.03;5153414;27;20701;-63
2023/04/19 01:41:28;;;;;;;13.23;12.13;;;;;;;11.78;100.00;-5978.81;5153180;27;20273;-63
2023/04/19 01:43:55;;;;;;;15.00;12.53;;;;;;;11.61;100.00;-5339.06;5153449;27;20224;-63
2023/04/19 01:46:22;;;;;;;13.53;12.23;;;;;;;11.51;100.00;-5658.19;5153479;27;20260;-62
2023/04/19 01:48:49;;;;;;;14.17;12.40;;;;;;;11.59;100.00;-5977.97;5152256;27;20683;-62
2023/04/19 01:51:17;;;;;;;15.87;13.80;;;;;;;11.68;100.00;-5978.34;5152524;27;20231;-64
2023/04/19 01:53:44;;;;;;;15.13;13.70;;;;;;;11.48;100.00;-6616.22;5152142;27;20273;-62
2023/04/19 01:56:11;;;;;;;17.57;14.77;;;;;;;11.79;100.00;-6617.94;5152426;27;20627;-62
2023/04/19 01:58:39;;;;;;;19.23;14.80;;;;;;;11.64;100.00;-6617.13;5152059;27;20210;-63
2023/04/19 02:01:08;;;;;;;19.60;14.63;;;;;;;11.68;100.00;-5978.34;5152664;27;20185;-63
2023/04/19 02:03:35;;;;;;;18.83;14.00;;;;;;;11.63;100.00;-5658.66;5150917;27;20182;-62
2023/04/19 02:06:02;;;;;;;19.37;14.60;;;;;;;11.55;100.00;-5977.78;5150419;27;20182;-63
2023/04/19 02:08:29;;;;;;;16.17;14.47;;;;;;;11.46;100.00;-6296.78;5152093;27;20767;-63
2023/04/19 02:10:56;;;;;;;19.10;15.07;;;;;;;11.45;100.00;-5338.53;5154778;27;20182;-63
2023/04/19 02:13:24;;;;;;;16.87;15.03;;;;;;;11.48;100.00;-4699.63;5154386;27;20229;-64
2023/04/19 02:15:52;;;;;;;15.47;13.87;;;;;;;11.36;100.00;-2781.97;5154089;27;20206;-63
2023/04/19 02:18:19;;;;;;;15.63;14.27;;;;;;;11.33;100.00;-3740.75;5154882;27;20201;-63
2023/04/19 02:20:46;;;;;;;16.27;14.37;;;;;;;11.36;100.00;-4699.31;5155720;27;20593;-63
2023/04/19 02:23:13;;;;;;;16.83;13.80;;;;;;;11.39;100.00;-4699.41;5155752;27;20232;-63
2023/04/19 02:25:40;;;;;;;20.27;15.43;;;;;;;11.46;100.00;-5338.56;5155484;27;20272;-63
2023/04/19 02:28:07;;;;;;;17.60;14.10;;;;;;;11.46;100.00;-5338.56;5154123;27;20280;-63
2023/04/19 02:30:36;;;;;;;17.27;14.17;;;;;;;11.48;100.00;-5338.63;5153897;27;20182;-63
2023/04/19 02:33:05;;;;;;;18.53;13.23;;;;;;;11.56;100.00;-5338.88;5154051;27;20608;-63
2023/04/19 02:35:32;;;;;;;16.07;14.43;;;;;;;11.68;100.00;-5339.28;5154009;27;20656;-63
2023/04/19 02:38:00;;;;;;;18.70;14.63;;;;;;;11.66;100.00;-4700.03;5154222;27;20198;-64
2023/04/19 02:40:27;;;;;;;16.03;14.47;;;;;;;11.62;100.00;-5019.53;5153908;27;20218;-63
2023/04/19 02:42:54;;;;;;;16.97;13.67;;;;;;;11.81;100.00;-5339.75;5153790;27;20218;-63
2023/04/19 02:45:21;;;;;;;18.07;13.73;;;;;;;11.77;100.00;-5339.59;5153653;27;20273;-64
2023/04/19 02:47:48;;;;;;;15.37;14.03;;;;;;;11.86;100.00;-5020.22;5153996;27;20285;-64
2023/04/19 02:50:17;;;;;;;15.57;14.07;;;;;;;11.80;100.00;-5339.69;5154765;27;20712;-64
2023/04/19 02:52:44;;;;;;;15.00;13.07;;;;;;;11.52;100.00;-5019.22;5154051;27;20599;-63
2023/04/19 02:55:11;;;;;;;15.60;13.50;;;;;;;11.93;100.00;-5020.41;5154158;27;20223;-63
2023/04/19 02:57:38;;;;;;;14.03;12.67;;;;;;;11.86;100.00;-3741.19;5154005;27;20182;-63
2023/04/19 03:00:09;;;;;;;19.43;14.40;;;;;;;11.88;100.00;-5339.97;5153702;27;20253;-64
2023/04/19 03:02:36;;;;;;;14.47;13.07;;;;;;;11.99;100.00;-6299.41;5153468;27;20620;-64
2023/04/19 03:05:05;;;;;;;14.37;13.07;;;;;;;11.90;100.00;-6618.56;5153700;27;20261;-64
2023/04/19 03:07:34;;;;;;;16.50;13.17;;;;;;;11.99;100.00;-5660.06;5153437;27;20236;-65
2023/04/19 03:10:01;;;;;;;14.27;13.00;;;;;;;11.83;100.00;-6298.59;5153346;27;20250;-65
2023/04/19 03:12:28;;;;;;;13.97;12.53;;;;;;;12.06;100.00;-5980.03;5153285;27;20182;-64
2023/04/19 03:14:58;;;;;;;14.43;12.43;;;;;;;12.15;100.00;-7259.19;5153366;27;20741;-64
2023/04/19 03:17:25;;;;;;;16.07;13.57;;;;;;;12.20;100.00;-8857.34;5153883;27;20566;-65
2023/04/19 03:19:55;;;;;;;12.93;11.60;;;;;;;12.18;100.00;-9815.47;5152500;27;20249;-64
2023/04/19 03:22:22;;;;;;;14.43;11.63;;;;;;;12.31;100.00;-10136.31;5155367;27;20201;-64
2023/04/19 03:24:51;;;;;;;11.80;10.90;;;;;;;12.11;100.00;-10772.63;5155417;27;20210;-66
2023/04/19 03:27:18;;;;;;;10.83;10.00;;;;;;;12.20;100.00;-13008.19;5154715;27;20194;-64
2023/04/19 03:29:46;;;;;;;10.97;10.07;;;;;;;12.21;100.00;-14284.47;5154461;27;20205;-64
2023/04/19 03:32:13;;;;;;;13.83;12.67;;;;;;;12.35;100.00;-14925.00;5154329;27;20190;-64
2023/04/19 03:34:40;;;;;;;18.60;12.97;;;;;;;12.31;100.00;-14605.16;5154669;27;20692;-64
2023/04/19 03:37:07;;;;;;;15.63;12.27;;;;;;;12.17;100.00;-13964.69;5154759;27;20239;-63
2023/04/19 03:39:34;;;;;;;14.83;13.50;;;;;;;12.28;100.00;-13647.66;5154350;27;20186;-63
2023/04/19 03:42:02;;;;;;;13.53;12.27;;;;;;;12.35;100.00;-13329.63;5154086;27;20192;-63
2023/04/19 03:44:31;;;;;;;18.90;12.57;;;;;;;12.46;100.00;-13012.16;5154275;27;20258;-63
2023/04/19 03:46:59;;;;;;;13.80;12.57;;;;;;;12.48;100.00;-12693.28;5154222;27;20193;-64
2023/04/19 03:49:26;;;;;;;15.17;12.83;;;;;;;12.52;100.00;-12693.91;5153472;27;20312;-63
2023/04/19 03:51:53;;;;;;;14.00;12.57;;;;;;;12.47;100.00;-13012.31;5153115;27;20202;-63
2023/04/19 03:54:20;;;;;;;11.27;10.47;;;;;;;12.44;100.00;-13650.19;5152758;27;20278;-63
2023/04/19 03:56:47;;;;;;;10.70;9.87;;;;;;;12.28;100.00;-14604.72;5152338;27;20309;-63
2023/04/19 03:59:16;;;;;;;10.63;9.93;;;;;;;12.42;100.00;-15245.22;5152740;27;20285;-63
2023/04/19 04:01:43;;;;;;;11.47;10.37;;;;;;;12.49;100.00;-15884.44;5152711;27;20619;-63
2023/04/19 04:04:10;;;;;;;9.60;9.10;;;;;;;12.48;100.00;-17159.78;5152884;27;20335;-63
2023/04/19 04:06:37;;;;;;;10.53;9.73;;;;;;;12.27;100.00;-17792.63;5152787;27;20692;-64
2023/04/19 04:09:04;;;;;;;10.53;9.50;;;;;;;12.57;100.00;-17799.59;5152303;27;20218;-63
2023/04/19 04:11:31;;;;;;;12.07;10.33;;;;;;;12.68;100.00;-17802.19;5152052;27;20182;-63
2023/04/19 04:13:58;;;;;;;11.33;10.53;;;;;;;12.74;100.00;-18122.34;5151807;27;20341;-63
2023/04/19 04:16:27;;;;;;;21.37;16.27;;;;;;;12.75;100.00;-18124.47;5152242;27;20213;-63
2023/04/19 04:18:54;;;;;;;17.43;15.03;;;;;;;12.77;100.00;-18124.94;5151917;27;20266;-63
2023/04/19 04:21:23;;;;;;;11.13;10.33;;;;;;;12.69;100.00;-18123.03;5152050;27;20277;-62
2023/04/19 04:23:50;;;;;;;10.90;9.97;;;;;;;12.65;100.00;-18122.19;5153636;27;20628;-62
2023/04/19 04:26:18;;;;;;;8.87;8.37;;;;;;;12.67;100.00;-18122.53;5134955;27;20182;-62
2023/04/19 04:28:46;;;;;;;9.67;9.00;;;;;;;12.76;100.00;-18124.81;5153269;27;20213;-62
2023/04/19 04:31:13;;;;;;;9.50;8.73;;;;;;;12.56;100.00;-18120.00;5152377;27;20186;-62
2023/04/19 04:33:41;;;;;;;9.30;8.60;;;;;;;12.73;100.00;-18124.00;5153078;27;20182;-62
2023/04/19 04:36:10;;;;;;;9.10;8.70;;;;;;;12.62;100.00;-18121.34;5153037;27;20276;-63
2023/04/19 04:38:37;;;;;;;8.57;8.17;;;;;;;12.56;100.00;-18119.88;5153786;27;20793;-62
2023/04/19 04:41:05;;;;;;;9.07;8.57;;;;;;;12.61;100.00;-18121.09;5153447;27;20696;-62
2023/04/19 04:43:32;;;;;;;8.33;7.80;;;;;;;12.60;100.00;-18119.00;5153113;27;20250;-63
2023/04/19 04:45:59;;;;;;;9.70;9.00;;;;;;;12.46;100.00;-17796.88;5151490;27;20193;-62
2023/04/19 04:48:27;;;;;;;9.33;8.63;;;;;;;12.59;100.00;-17481.13;5151566;27;20474;-61
2023/04/19 04:50:55;;;;;;;9.07;8.57;;;;;;;12.52;100.00;-17160.69;5151449;27;20736;-62
2023/04/19 04:53:22;;;;;;;7.53;7.07;;;;;;;12.64;100.00;-17482.38;5151248;27;20268;-62
2023/04/19 04:55:50;;;;;;;8.40;7.87;;;;;;;12.43;100.00;-18115.00;5151868;27;20209;-62
2023/04/19 04:58:17;;;;;;;6.63;6.13;;;;;;;12.23;100.00;-18110.31;5151681;27;20273;-61
2023/04/19 05:00:44;;;;;;;5.87;5.57;;;;;;;12.32;100.00;-17793.69;5151208;27;20265;-62
2023/04/19 05:03:11;;;;;;;6.17;5.77;;;;;;;12.33;100.00;-18112.72;5151649;27;20217;-61
2023/04/19 05:05:38;;;;;;;8.37;6.23;;;;;;;12.38;100.00;-18115.56;5151298;27;20186;-62
2023/04/19 05:08:07;;;;;;;9.70;7.20;;;;;;;12.48;100.00;-18117.97;5151358;27;20209;-62
2023/04/19 05:10:34;;;;;;;7.47;7.13;;;;;;;12.35;100.00;-18114.94;5151193;27;20205;-62
2023/04/19 05:13:01;;;;;;;7.40;6.70;;;;;;;12.67;100.00;-18122.53;5132551;27;20293;-62
2023/04/19 05:15:28;;;;;;;7.47;7.17;;;;;;;12.64;100.00;-18121.81;5132551;27;20230;-62
2023/04/19 05:17:55;;;;;;;8.13;7.57;;;;;;;12.73;100.00;-18124.00;5151348;27;20285;-61
2023/04/19 05:20:22;;;;;;;8.20;7.53;;;;;;;12.76;100.00;-18124.81;5151240;27;20671;-61
2023/04/19 05:22:50;;;;;;;8.47;7.87;;;;;;;12.86;100.00;-18127.13;5150706;27;20178;-61
2023/04/19 05:25:18;;;;;;;8.93;8.03;;;;;;;12.88;100.00;-18127.59;5151664;27;20210;-62
2023/04/19 05:27:45;;;;;;;7.93;7.53;;;;;;;12.96;100.00;-18129.53;5152135;27;20327;-62
2023/04/19 05:30:12;;;;;;;8.47;7.77;;;;;;;12.88;100.00;-18125.72;5151920;27;20292;-62
2023/04/19 05:32:40;;;;;;;8.03;7.53;;;;;;;12.71;100.00;-18121.75;5152184;27;20194;-63
2023/04/19 05:35:09;;;;;;;8.47;7.97;;;;;;;12.71;100.00;-18123.63;5152158;27;20189;-61
2023/04/19 05:37:36;;;;;;;8.40;7.90;;;;;;;12.66;100.00;-18122.28;5151644;27;20474;-62
2023/04/19 05:40:04;;;;;;;6.83;6.53;;;;;;;12.62;100.00;-18121.34;5151006;27;20604;-62
2023/04/19 05:42:33;;;;;;;7.13;6.73;;;;;;;12.38;100.00;-18115.56;5151131;27;20569;-61
2023/04/19 05:45:00;;;;;;;7.03;6.63;;;;;;;12.33;100.00;-18114.47;5155261;27;20174;-62
2023/04/19 05:47:27;;;;;;;8.10;7.50;;;;;;;12.37;100.00;-18113.56;5155496;27;20356;-62
2023/04/19 05:49:55;;;;;;;7.67;7.23;;;;;;;12.49;100.00;-17478.81;5155148;27;20287;-62
2023/04/19 05:52:22;;;;;;;7.63;7.27;;;;;;;12.54;100.00;-16842.25;5154635;27;20222;-61
2023/04/19 05:54:49;;;;;;;7.67;7.27;;;;;;;12.31;100.00;-16837.31;5135780;27;20326;-61
2023/04/19 05:57:16;;;;;;;6.80;6.50;;;;;;;12.07;100.00;-16513.34;5155341;27;20613;-62
2023/04/19 05:59:44;;;;;;;6.33;5.93;;;;;;;12.07;100.00;-16194.75;5154394;27;20247;-62
2023/04/19 06:02:11;;;;;;;7.27;6.97;;;;;;;12.10;100.00;-15239.00;5154522;27;20243;-62
2023/04/19 06:04:38;;;;;;;7.57;7.17;;;;;;;12.20;100.00;-14603.13;5154515;27;20219;-62
2023/04/19 06:07:07;;;;;;;8.10;7.80;;;;;;;12.25;100.00;-13647.06;5154437;27;20197;-62
2023/04/19 06:09:34;;;;;;;8.13;7.63;;;;;;;12.25;100.00;-13008.97;5153861;27;20767;-62
2023/04/19 06:12:01;;;;;;;7.60;7.20;;;;;;;12.25;100.00;-13008.91;5154683;27;20273;-61
2023/04/19 06:14:28;;;;;;;7.23;6.73;;;;;;;12.10;100.00;-12368.38;5154217;27;20233;-61
2023/04/19 06:16:57;;;;;;;6.50;6.20;;;;;;;12.29;100.00;-13328.72;5154272;27;20186;-62
2023/04/19 06:19:24;;;;;;;7.13;6.53;;;;;;;12.29;100.00;-14285.81;5154160;27;20203;-62
2023/04/19 06:21:51;;;;;;;7.87;7.20;;;;;;;12.42;100.00;-14288.03;5154112;27;20637;-61
2023/04/19 06:24:18;;;;;;;8.00;7.70;;;;;;;12.40;100.00;-13649.59;5154089;27;20269;-61
2023/04/19 06:26:46;;;;;;;8.30;7.50;;;;;;;12.41;100.00;-13649.69;5154008;27;20206;-61
2023/04/19 06:29:13;;;;;;;7.47;6.97;;;;;;;12.32;100.00;-13648.31;5155157;27;20178;-61
2023/04/19 06:31:44;;;;;;;7.47;7.00;;;;;;;12.39;100.00;-13330.19;5154779;27;20182;-62
2023/04/19 06:34:13;;;;;;;7.10;6.70;;;;;;;12.34;100.00;-12691.22;5155824;27;20235;-61
2023/04/19 06:36:40;;;;;;;6.63;6.33;;;;;;;12.48;100.00;-13331.66;5155853;27;20278;-60
2023/04/19 06:39:08;;;;;;;6.83;6.53;;;;;;;12.49;100.00;-13012.69;5156103;27;20546;-62
2023/04/19 06:41:40;;;;;;;6.63;6.23;;;;;;;12.49;100.00;-13012.69;5137383;27;20274;-61
2023/04/19 06:44:10;;;;;;;7.00;6.70;;;;;;;12.46;100.00;-13012.22;5141294;27;20218;-61
2023/04/19 06:46:37;;;;;;;6.87;6.43;;;;;;;12.69;100.00;-13015.88;5155306;27;20187;-61
2023/04/19 06:49:05;;;;;;;7.00;6.57;;;;;;;12.72;100.00;-12696.91;5155297;27;20269;-61
2023/04/19 06:51:33;;;;;;;8.33;7.70;;;;;;;12.66;100.00;-13334.69;5155507;27;20213;-61
2023/04/19 06:54:01;;;;;;;8.47;7.77;;;;;;;12.58;100.00;-14290.91;5155009;27;20277;-61
2023/04/19 06:56:44;;;;;;;8.70;8.20;;;;;;;12.38;100.00;-13968.25;5154804;27;20194;-61
2023/04/19 06:59:12;;;;;;;8.70;8.37;;;;;;;12.38;100.00;-13649.16;5155538;27;20275;-61
2023/04/19 07:01:39;;;;;;;9.60;8.77;;;;;;;12.52;100.00;-13651.63;5136692;27;20306;-61
2023/04/19 07:04:07;;;;;;;8.87;8.37;;;;;;;12.61;100.00;-13333.88;5155562;27;20182;-62
2023/04/19 07:06:36;;;;;;;8.53;8.10;;;;;;;12.67;100.00;-13334.78;5155247;27;20186;-61
2023/04/19 07:09:04;;;;;;;8.37;7.77;;;;;;;12.65;100.00;-13653.72;5155665;27;20206;-61
2023/04/19 07:11:32;;;;;;;7.10;6.63;;;;;;;12.93;100.00;-14297.19;5136277;27;20293;-61
2023/04/19 07:14:00;;;;;;;6.43;6.13;;;;;;;13.00;100.00;-15256.31;5154921;27;20354;-61
2023/04/19 07:16:27;;;;;;;6.00;5.80;;;;;;;13.25;100.00;-16219.22;5154856;27;20189;-61
2023/04/19 07:18:54;;;;;;;5.33;4.93;;;;;;;13.27;100.00;-17815.97;5155218;27;20254;-61
2023/04/19 07:21:21;;;;;;;5.20;4.80;;;;;;;13.14;100.00;-18131.88;5155208;27;20182;-60
2023/04/19 07:23:50;;;;;;;5.30;4.93;;;;;;;12.95;100.00;-17170.38;5154793;27;20268;-60
2023/04/19 07:26:17;;;;;;;5.83;5.43;;;;;;;12.72;100.00;-18123.75;5155001;27;20702;-61
2023/04/19 07:28:44;;;;;;;6.87;6.57;;;;;;;12.97;100.00;-18129.78;5155134;27;20588;-61
2023/04/19 07:31:15;;;;;;;6.90;6.40;;;;;;;12.85;100.00;-18126.88;5154598;27;20202;-61
2023/04/19 07:33:43;;;;;;;7.53;6.87;;;;;;;12.85;100.00;-18126.88;5154816;27;20471;-60
2023/04/19 07:36:10;;;;;;;10.63;9.83;;;;;;;12.81;100.00;-18125.91;5154906;27;20208;-61
2023/04/19 07:38:37;;;;;;;7.60;7.30;;;;;;;12.53;100.00;-18119.16;5154593;27;20186;-59
2023/04/19 07:41:06;;;;;;;7.63;7.20;;;;;;;12.72;100.00;-18123.88;5154924;27;20221;-60
2023/04/19 07:43:33;;;;;;;8.63;8.17;;;;;;;12.59;100.00;-17800.06;5154824;27;20224;-60
2023/04/19 07:46:01;;;;;;;8.30;7.90;;;;;;;12.62;100.00;-17163.03;5154451;27;20277;-60
2023/04/19 07:48:29;;;;;;;8.17;7.60;;;;;;;12.66;100.00;-16525.94;5154653;27;20666;-60
2023/04/19 07:50:56;;;;;;;7.90;7.40;;;;;;;12.48;100.00;-15884.34;5154214;27;20209;-60
2023/04/19 07:53:23;;;;;;;7.33;6.93;;;;;;;12.63;100.00;-15568.38;5154582;27;20234;-60
2023/04/19 07:55:51;;;;;;;6.90;6.40;;;;;;;12.65;100.00;-15568.78;5154191;27;20194;-60
2023/04/19 07:58:20;;;;;;;7.20;6.70;;;;;;;12.42;100.00;-15245.13;5154439;27;20186;-60
2023/04/19 08:00:47;;;;;;;6.83;6.43;;;;;;;12.74;100.00;-15570.47;5154881;27;20697;-62
2023/04/19 08:03:14;;;;;;;6.93;6.53;;;;;;;12.64;100.00;-15249.41;5154247;27;20526;-60
2023/04/19 08:05:41;;;;;;;6.27;6.07;;;;;;;12.56;100.00;-15566.88;5154165;27;20321;-60
2023/04/19 08:08:08;;;;;;;3.83;3.73;;;;;;;12.74;100.00;-15570.47;5153937;27;20197;-60
2023/04/19 08:10:35;;;;;;;4.27;4.07;;;;;;;12.63;100.00;-15568.38;5153919;27;20198;-61
2023/04/19 08:13:02;;;;;;;4.60;3.70;;;;;;;12.59;100.00;-15567.47;5153881;27;20200;-60
2023/04/19 08:15:31;;;;;;;3.80;3.70;;;;;;;12.51;100.00;-15565.97;5153953;27;20197;-60
2023/04/19 08:17:58;;;;;;;3.83;3.63;;;;;;;12.61;100.00;-15567.88;5153747;27;20185;-60
2023/04/19 08:20:25;;;;;;;2.97;2.87;;;;;;;12.65;100.00;-15568.66;5153809;27;20177;-61
2023/04/19 08:22:53;;;;;;;3.37;3.03;;;;;;;12.58;100.00;-16205.38;5154004;27;20615;-60
2023/04/19 08:25:22;;;;;;;3.43;3.23;;;;;;;12.72;100.00;-16527.22;5153943;27;20306;-61
2023/04/19 08:27:49;;;;;;;2.50;2.40;;;;;;;12.79;100.00;-16528.75;5153994;27;20189;-60
2023/04/19 08:30:20;;;;;;;2.20;2.10;;;;;;;12.73;100.00;-17803.25;5153820;27;20620;-61
2023/04/19 08:32:49;;;;;;;2.47;2.37;;;;;;;12.64;100.00;-17801.13;5153456;27;20274;-60
2023/04/19 08:35:17;;;;;;;3.33;3.13;;;;;;;12.58;100.00;-18118.50;5135104;27;20182;-60
2023/04/19 08:37:46;;;;;;;3.57;3.43;;;;;;;12.45;100.00;-18115.50;5153500;27;20285;-61
2023/04/19 08:40:15;;;;;;;2.90;2.80;;;;;;;12.63;100.00;-17482.03;5153730;27;20528;-61
2023/04/19 08:42:43;;;;;;;3.50;3.20;;;;;;;12.67;100.00;-17164.06;5153442;27;20215;-61
2023/04/19 08:45:12;;;;;;;2.20;2.10;;;;;;;12.73;100.00;-16846.56;5153310;27;20269;-61
2023/04/19 08:47:40;;;;;;;2.77;2.57;;;;;;;12.88;100.00;-16849.75;5153210;27;20220;-60
2023/04/19 08:50:09;;;;;;;1.50;1.50;;;;;;;12.70;100.00;-17802.53;5153020;27;20274;-60
2023/04/19 08:52:38;;;;;;;2.40;1.57;;;;;;;12.90;100.00;-18128.06;5153485;27;20261;-60
2023/04/19 08:55:07;;;;;;;1.70;1.60;;;;;;;12.67;100.00;-18122.66;5153368;27;20182;-61
2023/04/19 08:57:35;;;;;;;1.20;1.20;;;;;;;12.86;100.00;-18127.13;5153274;27;20215;-60
2023/04/19 09:00:05;;;;;;;1.00;1.00;;;;;;;12.82;100.00;-18126.28;5153417;27;20208;-61
2023/04/19 09:02:45;;;;;;;1.33;1.17;;;;;;;12.85;100.00;-18126.75;5153649;27;20623;-60
2023/04/19 09:05:15;;;;;;;3.63;1.20;;;;;;;12.60;100.00;-18120.84;5153836;27;20641;-62
2023/04/19 09:07:42;;;;;;;0.83;0.83;;;;;;;12.89;100.00;-18127.84;5153544;27;20266;-61
2023/04/19 09:10:11;;;;;;;2.30;1.00;;;;;;;12.89;100.00;-18127.72;5153187;27;20684;-60
2023/04/19 09:12:39;;;;;;;1.10;1.10;;;;;;;12.90;100.00;-18128.06;5153120;27;20623;-60
2023/04/19 09:15:08;;;;;;;1.27;1.17;;;;;;;12.83;100.00;-18126.50;5152742;27;20304;-61
2023/04/19 09:17:36;;;;;;;0.87;0.87;;;;;;;12.80;100.00;-18125.66;5152608;27;20530;-60
2023/04/19 09:20:04;;;;;;;1.00;1.00;;;;;;;12.92;100.00;-18128.44;5153304;27;20193;-60
2023/04/19 09:22:34;;;;;;;2.60;1.13;;;;;;;12.91;100.00;-18128.31;5152792;27;20273;-61
2023/04/19 09:25:01;;;;;;;1.17;1.03;;;;;;;12.91;100.00;-18128.31;5153083;27;20197;-61
2023/04/19 09:27:30;;;;;;;0.90;0.90;;;;;;;12.76;100.00;-18124.81;5134378;27;20566;-61
2023/04/19 09:29:58;;;;;;;0.90;0.90;;;;;;;12.89;100.00;-18127.84;5152589;27;20188;-60
2023/04/19 09:32:26;;;;;;;0.80;0.80;;;;;;;12.92;100.00;-18128.56;5152876;27;20208;-60
2023/04/19 09:34:55;;;;;;;1.03;0.73;;;;;;;12.97;100.00;-18129.78;5152633;27;20197;-61
2023/04/19 09:37:23;;;;;;;0.70;0.70;;;;;;;12.76;100.00;-18124.72;5152633;27;20264;-60
2023/04/19 09:39:53;;;;;;;1.33;0.70;;;;;;;12.66;100.00;-18122.28;5152993;27;20700;-61
2023/04/19 09:42:20;;;;;;;2.83;0.70;;;;;;;12.66;100.00;-18122.28;5153047;27;20272;-61
2023/04/19 09:44:57;;;;;;;0.60;0.60;;;;;;;12.58;100.00;-18120.50;5152584;27;20182;-60
2023/04/19 09:47:25;;;;;;;0.70;0.70;;;;;;;12.70;100.00;-17802.66;5152549;27;20185;-60
2023/04/19 09:50:06;;;;;;;0.90;0.90;;;;;;;12.75;100.00;-17165.97;5152653;27;20196;-60
2023/04/19 09:52:34;;;;;;;0.73;0.73;;;;;;;12.82;100.00;-16210.31;5152314;27;20198;-61
2023/04/19 09:55:04;;;;;;;0.73;0.70;;;;;;;12.77;100.00;-15890.28;5152760;27;20590;-60
2023/04/19 09:57:32;;;;;;;1.13;0.70;;;;;;;12.81;100.00;-15252.81;5152814;27;20622;-60
2023/04/19 10:00:00;;;;;;;0.70;0.70;;;;;;;12.82;100.00;-15572.16;5152736;27;20686;-61
2023/04/19 10:02:32;;;;;;;1.17;0.50;;;;;;;12.89;100.00;-15892.63;5152629;27;20640;-60
2023/04/19 10:04:59;;;;;;;2.50;1.00;;;;;;;12.87;100.00;-16530.47;5152365;27;20189;-60
2023/04/19 10:07:27;;;;;;;0.80;0.80;;;;;;;12.98;100.00;-16532.81;5152200;27;20185;-61
2023/04/19 10:09:56;;;;;;;1.50;0.80;;;;;;;12.99;100.00;-17490.34;5152265;27;20224;-60
2023/04/19 10:12:27;;;;;;;4.53;0.60;;;;;;;12.98;100.00;-17490.09;5152063;27;20213;-60
2023/04/19 10:14:56;;;;;;;0.60;0.60;;;;;;;12.71;100.00;-18123.50;5152084;27;20275;-59
2023/04/19 10:17:24;;;;;;;0.67;0.67;;;;;;;12.62;100.00;-17800.66;5152286;27;20198;-61
2023/04/19 10:20:05;;;;;;;0.67;0.67;;;;;;;13.01;100.00;-17490.81;5152305;27;20220;-60
2023/04/19 10:22:33;;;;;;;4.17;0.60;;;;;;;13.14;100.00;-17174.66;5152134;27;20206;-60
2023/04/19 10:25:11;;;;;;;2.00;1.93;;;;;;;13.26;100.00;-16858.13;5152050;27;20187;-59
2023/04/19 10:27:44;;;;;;;4.33;3.67;;;;;;;13.09;100.00;-15258.06;5152027;27;20213;-59
2023/04/19 10:30:20;;;;;;;2.00;1.90;;;;;;;13.67;100.00;-15908.41;5152469;27;20190;-60
2023/04/19 10:32:54;;;;;;;0.90;0.90;;;;;;;13.81;100.00;-13033.34;5147679;27;20249;-61
2023/04/19 10:35:23;;;;;;;1.10;0.97;;;;;;;13.97;100.00;-8232.44;5135099;27;20244;-60
2023/04/19 10:38:08;;;;;;;0.67;0.67;;;;;;;13.87;100.00;-5667.28;5135179;27;20244;-60
2023/04/19 10:40:55;;;;;;;0.80;0.80;;;;;;;13.90;100.00;-3100.97;5135162;27;20217;-60
2023/04/19 10:43:24;;;;;;;1.43;0.90;;;;;;;13.87;100.00;-2459.09;5135273;27;20274;-60
2023/04/19 10:45:52;;;;;;;2.47;1.77;;;;;;;13.83;100.00;-2459.13;5135103;27;20261;-60
2023/04/19 10:48:37;;;;;;;0.70;0.70;;;;;;;13.83;100.00;-5025.81;5116538;27;20281;-60
2023/04/19 10:51:11;;;;;;;0.87;0.87;;;;;;;13.85;100.00;-5667.22;5134975;27;20299;-60
2023/04/19 10:53:58;;;;;;;1.13;0.90;;;;;;;13.75;100.00;-3421.84;5134689;27;20212;-61
2023/04/19 10:57:00;;;;;;;0.90;0.90;;;;;;;13.76;100.00;-2459.22;5135042;27;20613;-60
2023/04/19 10:59:30;;;;;;;0.60;0.60;;;;;;;13.86;100.00;5253.28;5130520;27;20194;-61
2023/04/19 11:01:59;;;;;;;0.93;0.93;;;;;;;13.90;100.00;3002.44;5134788;27;20706;-60
2023/04/19 11:05:10;;;;;;;0.80;0.80;;;;;;;14.03;100.00;5577.56;5135282;27;20183;-60
2023/04/19 11:07:45;;;;;;;1.10;0.73;;;;;;;13.91;100.00;6863.16;5134573;27;20305;-60
2023/04/19 11:10:13;;;;;;;0.77;0.77;;;;;;;13.77;100.00;13949.00;5134738;27;20187;-60
2023/04/19 11:12:44;;;;;;;2.20;1.33;;;;;;;13.91;100.00;16534.81;5134209;27;20206;-60
2023/04/19 11:15:24;;;;;;;1.23;1.20;;;;;;;13.89;100.00;19764.00;5093943;28;20578;-60
2023/04/19 11:17:52;;;;;;;1.17;1.17;;;;;;;13.82;100.00;19438.47;5093392;28;20237;-60
2023/04/19 11:20:23;;;;;;;2.00;1.20;;;;;;;13.76;100.00;25903.75;5093460;28;20284;-60
2023/04/19 11:22:51;;;;;;;1.20;1.20;;;;;;;13.63;100.00;25250.63;5093271;28;20262;-61